sensor_id;sensor_type;location;lat;lon;timestamp;P1;durP1;ratioP1;P2;durP2;ratioP2
69203;SDS011;56317;27.658;85.326;2023-04-08T00:01:04;250.70;;;148.05;;
69203;SDS011;56317;27.658;85.326;2023-04-08T00:03:32;246.40;;;147.77;;
69203;SDS011;56317;27.658;85.326;2023-04-08T00:05:59;247.98;;;145.60;;
69203;SDS011;56317;27.658;85.326;2023-04-08T00:08:27;229.32;;;142.68;;
69203;SDS011;56317;27.658;85.326;2023-04-08T00:11:01;220.90;;;138.15;;
69203;SDS011;56317;27.658;85.326;2023-04-08T00:13:28;241.27;;;142.00;;
69203;SDS011;56317;27.658;85.326;2023-04-08T00:15:55;223.25;;;141.15;;
69203;SDS011;56317;27.658;85.326;2023-04-08T00:18:23;248.02;;;143.75;;
69203;SDS011;56317;27.658;85.326;2023-04-08T00:20:53;234.38;;;143.75;;
69203;SDS011;56317;27.658;85.326;2023-04-08T00:23:21;236.23;;;142.63;;
69203;SDS011;56317;27.658;85.326;2023-04-08T00:25:49;224.02;;;138.70;;
69203;SDS011;56317;27.658;85.326;2023-04-08T00:28:19;215.93;;;133.88;;
69203;SDS011;56317;27.658;85.326;2023-04-08T00:30:46;237.60;;;139.80;;
69203;SDS011;56317;27.658;85.326;2023-04-08T00:33:13;229.15;;;137.45;;
69203;SDS011;56317;27.658;85.326;2023-04-08T00:35:41;230.40;;;141.10;;
69203;SDS011;56317;27.658;85.326;2023-04-08T00:38:08;251.10;;;143.65;;
69203;SDS011;56317;27.658;85.326;2023-04-08T00:40:35;234.27;;;140.23;;
69203;SDS011;56317;27.658;85.326;2023-04-08T00:43:03;229.75;;;138.90;;
69203;SDS011;56317;27.658;85.326;2023-04-08T00:45:31;233.63;;;138.77;;
69203;SDS011;56317;27.658;85.326;2023-04-08T00:48:00;218.05;;;138.23;;
69203;SDS011;56317;27.658;85.326;2023-04-08T00:50:28;236.45;;;140.88;;
69203;SDS011;56317;27.658;85.326;2023-04-08T00:52:55;241.40;;;138.68;;
69203;SDS011;56317;27.658;85.326;2023-04-08T00:55:22;236.82;;;142.18;;
69203;SDS011;56317;27.658;85.326;2023-04-08T00:57:50;237.07;;;143.30;;
69203;SDS011;56317;27.658;85.326;2023-04-08T01:00:17;157.38;;;103.45;;
69203;SDS011;56317;27.658;85.326;2023-04-08T01:08:33;231.40;;;146.88;;
69203;SDS011;56317;27.658;85.326;2023-04-08T01:11:03;216.98;;;136.77;;
69203;SDS011;56317;27.658;85.326;2023-04-08T01:16:04;219.73;;;141.10;;
69203;SDS011;56317;27.658;85.326;2023-04-08T01:18:34;214.83;;;138.93;;
69203;SDS011;56317;27.658;85.326;2023-04-08T01:21:02;188.98;;;127.68;;
69203;SDS011;56317;27.658;85.326;2023-04-08T01:26:36;188.50;;;129.40;;
69203;SDS011;56317;27.658;85.326;2023-04-08T01:29:04;191.80;;;128.40;;
69203;SDS011;56317;27.658;85.326;2023-04-08T01:31:33;180.27;;;122.90;;
69203;SDS011;56317;27.658;85.326;2023-04-08T01:34:04;189.68;;;123.28;;
69203;SDS011;56317;27.658;85.326;2023-04-08T01:36:32;184.05;;;120.70;;
69203;SDS011;56317;27.658;85.326;2023-04-08T01:39:02;189.57;;;124.32;;
69203;SDS011;56317;27.658;85.326;2023-04-08T01:41:32;187.07;;;129.95;;
69203;SDS011;56317;27.658;85.326;2023-04-08T01:44:04;185.98;;;129.45;;
69203;SDS011;56317;27.658;85.326;2023-04-08T01:46:31;202.63;;;130.25;;
69203;SDS011;56317;27.658;85.326;2023-04-08T01:49:00;207.15;;;128.02;;
69203;SDS011;56317;27.658;85.326;2023-04-08T01:51:28;204.95;;;129.18;;
69203;SDS011;56317;27.658;85.326;2023-04-08T01:53:56;195.63;;;128.18;;
69203;SDS011;56317;27.658;85.326;2023-04-08T01:56:24;197.88;;;126.10;;
69203;SDS011;56317;27.658;85.326;2023-04-08T01:58:54;195.20;;;122.93;;
69203;SDS011;56317;27.658;85.326;2023-04-08T02:01:26;189.07;;;123.03;;
69203;SDS011;56317;27.658;85.326;2023-04-08T02:03:57;197.32;;;121.22;;
69203;SDS011;56317;27.658;85.326;2023-04-08T02:06:25;183.75;;;120.93;;
69203;SDS011;56317;27.658;85.326;2023-04-08T02:08:54;190.20;;;120.20;;
69203;SDS011;56317;27.658;85.326;2023-04-08T02:11:21;193.43;;;126.65;;
69203;SDS011;56317;27.658;85.326;2023-04-08T02:13:50;190.85;;;127.05;;
69203;SDS011;56317;27.658;85.326;2023-04-08T02:16:22;201.77;;;127.97;;
69203;SDS011;56317;27.658;85.326;2023-04-08T02:19:18;193.20;;;127.47;;
69203;SDS011;56317;27.658;85.326;2023-04-08T02:22:00;192.73;;;125.25;;
69203;SDS011;56317;27.658;85.326;2023-04-08T02:24:31;214.10;;;134.95;;
69203;SDS011;56317;27.658;85.326;2023-04-08T02:27:01;207.98;;;137.52;;
69203;SDS011;56317;27.658;85.326;2023-04-08T02:29:30;212.80;;;137.82;;
69203;SDS011;56317;27.658;85.326;2023-04-08T02:32:00;203.82;;;134.25;;
69203;SDS011;56317;27.658;85.326;2023-04-08T02:34:29;187.55;;;130.57;;
69203;SDS011;56317;27.658;85.326;2023-04-08T02:36:57;185.00;;;123.07;;
69203;SDS011;56317;27.658;85.326;2023-04-08T02:39:31;185.13;;;122.82;;
69203;SDS011;56317;27.658;85.326;2023-04-08T02:41:58;160.57;;;110.35;;
69203;SDS011;56317;27.658;85.326;2023-04-08T02:44:26;166.25;;;114.40;;
69203;SDS011;56317;27.658;85.326;2023-04-08T02:46:53;147.75;;;103.95;;
69203;SDS011;56317;27.658;85.326;2023-04-08T02:49:20;153.05;;;109.63;;
69203;SDS011;56317;27.658;85.326;2023-04-08T02:51:48;173.65;;;120.15;;
69203;SDS011;56317;27.658;85.326;2023-04-08T02:54:15;168.02;;;119.55;;
69203;SDS011;56317;27.658;85.326;2023-04-08T02:56:42;164.15;;;119.53;;
69203;SDS011;56317;27.658;85.326;2023-04-08T02:59:13;180.20;;;124.10;;
69203;SDS011;56317;27.658;85.326;2023-04-08T03:01:41;177.85;;;126.55;;
69203;SDS011;56317;27.658;85.326;2023-04-08T03:04:08;185.38;;;129.77;;
69203;SDS011;56317;27.658;85.326;2023-04-08T03:06:36;184.52;;;131.20;;
69203;SDS011;56317;27.658;85.326;2023-04-08T03:09:03;205.77;;;139.30;;
69203;SDS011;56317;27.658;85.326;2023-04-08T03:11:30;201.05;;;142.43;;
69203;SDS011;56317;27.658;85.326;2023-04-08T03:13:58;211.32;;;142.65;;
69203;SDS011;56317;27.658;85.326;2023-04-08T03:16:26;219.25;;;146.57;;
69203;SDS011;56317;27.658;85.326;2023-04-08T03:18:53;198.05;;;139.02;;
69203;SDS011;56317;27.658;85.326;2023-04-08T03:21:20;202.45;;;142.23;;
69203;SDS011;56317;27.658;85.326;2023-04-08T03:23:47;204.07;;;140.68;;
69203;SDS011;56317;27.658;85.326;2023-04-08T03:26:15;209.13;;;145.02;;
69203;SDS011;56317;27.658;85.326;2023-04-08T03:28:42;212.85;;;145.68;;
69203;SDS011;56317;27.658;85.326;2023-04-08T03:31:09;193.45;;;140.27;;
69203;SDS011;56317;27.658;85.326;2023-04-08T03:33:39;199.48;;;134.73;;
69203;SDS011;56317;27.658;85.326;2023-04-08T03:36:06;188.13;;;138.23;;
69203;SDS011;56317;27.658;85.326;2023-04-08T03:38:34;194.40;;;137.93;;
69203;SDS011;56317;27.658;85.326;2023-04-08T03:41:02;204.18;;;143.60;;
69203;SDS011;56317;27.658;85.326;2023-04-08T03:43:29;199.50;;;137.85;;
69203;SDS011;56317;27.658;85.326;2023-04-08T03:45:57;203.90;;;140.30;;
69203;SDS011;56317;27.658;85.326;2023-04-08T03:48:24;212.43;;;147.85;;
69203;SDS011;56317;27.658;85.326;2023-04-08T03:50:52;210.65;;;143.45;;
69203;SDS011;56317;27.658;85.326;2023-04-08T03:53:19;216.10;;;155.68;;
69203;SDS011;56317;27.658;85.326;2023-04-08T03:55:47;215.10;;;156.18;;
69203;SDS011;56317;27.658;85.326;2023-04-08T03:58:17;219.85;;;152.73;;
69203;SDS011;56317;27.658;85.326;2023-04-08T04:00:45;229.18;;;161.23;;
69203;SDS011;56317;27.658;85.326;2023-04-08T04:03:12;216.73;;;155.40;;
69203;SDS011;56317;27.658;85.326;2023-04-08T04:05:39;229.23;;;158.23;;
69203;SDS011;56317;27.658;85.326;2023-04-08T04:08:07;231.63;;;169.23;;
69203;SDS011;56317;27.658;85.326;2023-04-08T04:10:34;229.18;;;163.18;;
69203;SDS011;56317;27.658;85.326;2023-04-08T04:13:01;229.70;;;165.15;;
69203;SDS011;56317;27.658;85.326;2023-04-08T04:15:28;226.35;;;160.10;;
69203;SDS011;56317;27.658;85.326;2023-04-08T04:17:56;222.95;;;152.73;;
69203;SDS011;56317;27.658;85.326;2023-04-08T04:20:23;229.00;;;163.55;;
69203;SDS011;56317;27.658;85.326;2023-04-08T04:22:50;223.05;;;163.50;;
69203;SDS011;56317;27.658;85.326;2023-04-08T04:25:18;222.80;;;157.98;;
69203;SDS011;56317;27.658;85.326;2023-04-08T04:27:48;233.35;;;162.75;;
69203;SDS011;56317;27.658;85.326;2023-04-08T04:30:15;223.50;;;162.50;;
69203;SDS011;56317;27.658;85.326;2023-04-08T04:32:44;210.00;;;153.50;;
69203;SDS011;56317;27.658;85.326;2023-04-08T04:35:11;205.50;;;149.35;;
69203;SDS011;56317;27.658;85.326;2023-04-08T04:37:38;189.52;;;140.07;;
69203;SDS011;56317;27.658;85.326;2023-04-08T04:40:08;176.07;;;136.05;;
69203;SDS011;56317;27.658;85.326;2023-04-08T04:42:36;187.43;;;134.52;;
69203;SDS011;56317;27.658;85.326;2023-04-08T04:45:03;207.52;;;136.13;;
69203;SDS011;56317;27.658;85.326;2023-04-08T04:47:31;175.00;;;127.57;;
69203;SDS011;56317;27.658;85.326;2023-04-08T04:49:58;158.13;;;113.18;;
69203;SDS011;56317;27.658;85.326;2023-04-08T04:52:25;118.43;;;85.00;;
69203;SDS011;56317;27.658;85.326;2023-04-08T04:54:53;110.43;;;78.47;;
69203;SDS011;56317;27.658;85.326;2023-04-08T04:57:22;130.02;;;89.72;;
69203;SDS011;56317;27.658;85.326;2023-04-08T04:59:49;111.75;;;82.95;;
69203;SDS011;56317;27.658;85.326;2023-04-08T05:02:16;114.65;;;80.85;;
69203;SDS011;56317;27.658;85.326;2023-04-08T05:04:43;106.07;;;79.18;;
69203;SDS011;56317;27.658;85.326;2023-04-08T05:07:10;101.85;;;73.35;;
69203;SDS011;56317;27.658;85.326;2023-04-08T05:09:38;89.18;;;66.35;;
69203;SDS011;56317;27.658;85.326;2023-04-08T05:12:05;73.25;;;49.95;;
69203;SDS011;56317;27.658;85.326;2023-04-08T05:14:32;71.75;;;53.58;;
69203;SDS011;56317;27.658;85.326;2023-04-08T05:16:59;71.10;;;51.67;;
69203;SDS011;56317;27.658;85.326;2023-04-08T05:19:27;72.68;;;51.95;;
69203;SDS011;56317;27.658;85.326;2023-04-08T05:21:54;84.93;;;59.03;;
69203;SDS011;56317;27.658;85.326;2023-04-08T05:24:21;89.00;;;62.53;;
69203;SDS011;56317;27.658;85.326;2023-04-08T05:26:48;89.75;;;63.03;;
69203;SDS011;56317;27.658;85.326;2023-04-08T05:29:17;79.63;;;57.00;;
69203;SDS011;56317;27.658;85.326;2023-04-08T05:31:46;65.90;;;50.15;;
69203;SDS011;56317;27.658;85.326;2023-04-08T05:34:13;49.47;;;31.50;;
69203;SDS011;56317;27.658;85.326;2023-04-08T05:36:47;44.55;;;32.15;;
69203;SDS011;56317;27.658;85.326;2023-04-08T05:39:18;50.28;;;31.83;;
69203;SDS011;56317;27.658;85.326;2023-04-08T05:41:46;56.22;;;29.50;;
69203;SDS011;56317;27.658;85.326;2023-04-08T05:44:13;43.80;;;29.35;;
69203;SDS011;56317;27.658;85.326;2023-04-08T05:46:41;39.25;;;29.40;;
69203;SDS011;56317;27.658;85.326;2023-04-08T05:49:08;47.80;;;29.25;;
69203;SDS011;56317;27.658;85.326;2023-04-08T05:51:35;37.38;;;28.80;;
69203;SDS011;56317;27.658;85.326;2023-04-08T05:54:03;67.15;;;37.45;;
69203;SDS011;56317;27.658;85.326;2023-04-08T05:56:30;55.33;;;38.00;;
69203;SDS011;56317;27.658;85.326;2023-04-08T05:58:57;61.28;;;37.00;;
69203;SDS011;56317;27.658;85.326;2023-04-08T06:01:25;46.72;;;36.95;;
69203;SDS011;56317;27.658;85.326;2023-04-08T06:03:52;55.00;;;36.95;;
69203;SDS011;56317;27.658;85.326;2023-04-08T06:06:21;51.47;;;36.42;;
69203;SDS011;56317;27.658;85.326;2023-04-08T06:08:48;58.08;;;36.83;;
69203;SDS011;56317;27.658;85.326;2023-04-08T06:11:16;49.92;;;36.60;;
69203;SDS011;56317;27.658;85.326;2023-04-08T06:13:43;53.67;;;37.22;;
69203;SDS011;56317;27.658;85.326;2023-04-08T06:16:14;55.88;;;37.20;;
69203;SDS011;56317;27.658;85.326;2023-04-08T06:18:42;47.47;;;33.92;;
69203;SDS011;56317;27.658;85.326;2023-04-08T06:21:09;51.70;;;31.33;;
69203;SDS011;56317;27.658;85.326;2023-04-08T06:23:36;43.50;;;30.90;;
69203;SDS011;56317;27.658;85.326;2023-04-08T06:26:04;45.30;;;32.25;;
69203;SDS011;56317;27.658;85.326;2023-04-08T06:28:31;51.13;;;31.35;;
69203;SDS011;56317;27.658;85.326;2023-04-08T06:30:58;40.15;;;30.40;;
69203;SDS011;56317;27.658;85.326;2023-04-08T06:33:26;42.53;;;29.27;;
69203;SDS011;56317;27.658;85.326;2023-04-08T06:36:05;42.45;;;29.75;;
69203;SDS011;56317;27.658;85.326;2023-04-08T06:38:33;37.35;;;25.45;;
69203;SDS011;56317;27.658;85.326;2023-04-08T06:41:07;40.00;;;26.98;;
69203;SDS011;56317;27.658;85.326;2023-04-08T06:43:35;34.80;;;24.92;;
69203;SDS011;56317;27.658;85.326;2023-04-08T06:46:02;38.78;;;28.92;;
69203;SDS011;56317;27.658;85.326;2023-04-08T06:48:29;36.72;;;30.05;;
69203;SDS011;56317;27.658;85.326;2023-04-08T06:50:57;46.13;;;30.05;;
69203;SDS011;56317;27.658;85.326;2023-04-08T06:53:26;35.13;;;19.70;;
69203;SDS011;56317;27.658;85.326;2023-04-08T06:55:57;31.40;;;18.58;;
69203;SDS011;56317;27.658;85.326;2023-04-08T06:58:25;37.03;;;20.20;;
69203;SDS011;56317;27.658;85.326;2023-04-08T07:00:55;31.35;;;19.92;;
69203;SDS011;56317;27.658;85.326;2023-04-08T07:03:24;34.10;;;23.05;;
69203;SDS011;56317;27.658;85.326;2023-04-08T07:05:51;33.28;;;22.83;;
69203;SDS011;56317;27.658;85.326;2023-04-08T07:08:18;45.42;;;25.13;;
69203;SDS011;56317;27.658;85.326;2023-04-08T07:13:17;36.15;;;24.00;;
69203;SDS011;56317;27.658;85.326;2023-04-08T07:15:44;35.58;;;24.85;;
69203;SDS011;56317;27.658;85.326;2023-04-08T07:18:11;36.55;;;25.38;;
69203;SDS011;56317;27.658;85.326;2023-04-08T07:20:38;47.00;;;25.88;;
69203;SDS011;56317;27.658;85.326;2023-04-08T07:23:06;42.90;;;30.00;;
69203;SDS011;56317;27.658;85.326;2023-04-08T07:25:33;49.47;;;32.15;;
69203;SDS011;56317;27.658;85.326;2023-04-08T07:28:01;44.53;;;31.00;;
69203;SDS011;56317;27.658;85.326;2023-04-08T07:30:28;53.38;;;29.98;;
69203;SDS011;56317;27.658;85.326;2023-04-08T07:32:55;37.88;;;30.90;;
69203;SDS011;56317;27.658;85.326;2023-04-08T07:35:23;40.05;;;32.28;;
69203;SDS011;56317;27.658;85.326;2023-04-08T07:37:50;42.85;;;33.92;;
69203;SDS011;56317;27.658;85.326;2023-04-08T07:40:18;53.17;;;35.65;;
69203;SDS011;56317;27.658;85.326;2023-04-08T07:42:45;58.63;;;39.35;;
69203;SDS011;56317;27.658;85.326;2023-04-08T07:45:13;55.80;;;40.83;;
69203;SDS011;56317;27.658;85.326;2023-04-08T07:47:41;62.80;;;38.60;;
69203;SDS011;56317;27.658;85.326;2023-04-08T07:50:09;54.47;;;34.00;;
69203;SDS011;56317;27.658;85.326;2023-04-08T07:52:36;51.05;;;35.08;;
69203;SDS011;56317;27.658;85.326;2023-04-08T07:55:03;48.40;;;35.10;;
69203;SDS011;56317;27.658;85.326;2023-04-08T07:57:31;50.42;;;37.28;;
69203;SDS011;56317;27.658;85.326;2023-04-08T07:59:58;44.80;;;36.63;;
69203;SDS011;56317;27.658;85.326;2023-04-08T08:02:26;47.53;;;34.50;;
69203;SDS011;56317;27.658;85.326;2023-04-08T08:04:53;58.47;;;42.35;;
69203;SDS011;56317;27.658;85.326;2023-04-08T08:07:20;57.67;;;41.55;;
69203;SDS011;56317;27.658;85.326;2023-04-08T08:13:18;58.13;;;41.80;;
69203;SDS011;56317;27.658;85.326;2023-04-08T08:15:50;58.08;;;42.13;;
69203;SDS011;56317;27.658;85.326;2023-04-08T08:18:18;56.05;;;43.17;;
69203;SDS011;56317;27.658;85.326;2023-04-08T08:20:45;63.03;;;45.72;;
69203;SDS011;56317;27.658;85.326;2023-04-08T08:23:12;66.32;;;45.38;;
69203;SDS011;56317;27.658;85.326;2023-04-08T08:25:43;58.22;;;45.33;;
69203;SDS011;56317;27.658;85.326;2023-04-08T08:28:10;67.00;;;45.90;;
69203;SDS011;56317;27.658;85.326;2023-04-08T08:30:40;65.85;;;47.75;;
69203;SDS011;56317;27.658;85.326;2023-04-08T08:33:08;61.40;;;45.40;;
69203;SDS011;56317;27.658;85.326;2023-04-08T08:35:35;58.13;;;45.05;;
69203;SDS011;56317;27.658;85.326;2023-04-08T08:38:02;58.28;;;47.03;;
69203;SDS011;56317;27.658;85.326;2023-04-08T08:40:30;59.65;;;46.22;;
69203;SDS011;56317;27.658;85.326;2023-04-08T08:42:57;66.82;;;45.88;;
69203;SDS011;56317;27.658;85.326;2023-04-08T08:45:28;59.55;;;44.47;;
69203;SDS011;56317;27.658;85.326;2023-04-08T08:47:56;61.08;;;46.05;;
69203;SDS011;56317;27.658;85.326;2023-04-08T08:50:23;68.13;;;46.22;;
69203;SDS011;56317;27.658;85.326;2023-04-08T08:52:51;69.88;;;49.17;;
69203;SDS011;56317;27.658;85.326;2023-04-08T08:55:18;58.72;;;45.88;;
69203;SDS011;56317;27.658;85.326;2023-04-08T08:57:49;60.10;;;45.10;;
69203;SDS011;56317;27.658;85.326;2023-04-08T09:00:17;67.78;;;45.63;;
69203;SDS011;56317;27.658;85.326;2023-04-08T09:02:44;56.72;;;44.63;;
69203;SDS011;56317;27.658;85.326;2023-04-08T09:05:11;62.75;;;45.33;;
69203;SDS011;56317;27.658;85.326;2023-04-08T09:07:38;67.70;;;45.78;;
69203;SDS011;56317;27.658;85.326;2023-04-08T09:10:06;58.58;;;45.40;;
69203;SDS011;56317;27.658;85.326;2023-04-08T09:12:35;64.65;;;45.78;;
69203;SDS011;56317;27.658;85.326;2023-04-08T09:15:20;69.82;;;46.97;;
69203;SDS011;56317;27.658;85.326;2023-04-08T09:17:47;65.13;;;45.40;;
69203;SDS011;56317;27.658;85.326;2023-04-08T09:20:15;62.25;;;44.83;;
69203;SDS011;56317;27.658;85.326;2023-04-08T09:25:22;68.03;;;43.65;;
69203;SDS011;56317;27.658;85.326;2023-04-08T09:27:59;63.53;;;40.33;;
69203;SDS011;56317;27.658;85.326;2023-04-08T09:30:27;56.92;;;38.80;;
69203;SDS011;56317;27.658;85.326;2023-04-08T09:32:57;48.50;;;38.17;;
69203;SDS011;56317;27.658;85.326;2023-04-08T09:35:25;56.63;;;38.85;;
69203;SDS011;56317;27.658;85.326;2023-04-08T09:37:53;67.85;;;41.83;;
69203;SDS011;56317;27.658;85.326;2023-04-08T09:40:23;56.33;;;39.75;;
69203;SDS011;56317;27.658;85.326;2023-04-08T09:42:51;53.75;;;37.88;;
69203;SDS011;56317;27.658;85.326;2023-04-08T09:45:24;59.97;;;38.55;;
69203;SDS011;56317;27.658;85.326;2023-04-08T09:48:11;59.85;;;38.45;;
69203;SDS011;56317;27.658;85.326;2023-04-08T09:50:45;56.72;;;40.38;;
69203;SDS011;56317;27.658;85.326;2023-04-08T09:56:19;61.80;;;42.42;;
69203;SDS011;56317;27.658;85.326;2023-04-08T10:01:18;71.10;;;43.15;;
69203;SDS011;56317;27.658;85.326;2023-04-08T10:03:54;62.25;;;43.97;;
69203;SDS011;56317;27.658;85.326;2023-04-08T10:06:26;64.28;;;44.08;;
69203;SDS011;56317;27.658;85.326;2023-04-08T10:08:55;66.22;;;45.40;;
69203;SDS011;56317;27.658;85.326;2023-04-08T10:11:24;63.10;;;45.75;;
69203;SDS011;56317;27.658;85.326;2023-04-08T10:13:51;71.93;;;48.50;;
69203;SDS011;56317;27.658;85.326;2023-04-08T10:16:19;66.32;;;47.10;;
69203;SDS011;56317;27.658;85.326;2023-04-08T10:18:47;67.97;;;47.38;;
69203;SDS011;56317;27.658;85.326;2023-04-08T10:21:41;71.13;;;46.75;;
69203;SDS011;56317;27.658;85.326;2023-04-08T10:24:13;63.10;;;45.55;;
69203;SDS011;56317;27.658;85.326;2023-04-08T10:26:43;69.60;;;46.88;;
69203;SDS011;56317;27.658;85.326;2023-04-08T10:31:46;65.20;;;46.47;;
69203;SDS011;56317;27.658;85.326;2023-04-08T10:34:17;57.38;;;43.33;;
69203;SDS011;56317;27.658;85.326;2023-04-08T10:36:54;60.67;;;43.70;;
69203;SDS011;56317;27.658;85.326;2023-04-08T10:39:24;63.90;;;44.87;;
69203;SDS011;56317;27.658;85.326;2023-04-08T10:41:52;62.80;;;44.75;;
69203;SDS011;56317;27.658;85.326;2023-04-08T10:44:25;65.70;;;45.45;;
69203;SDS011;56317;27.658;85.326;2023-04-08T10:46:53;70.40;;;45.08;;
69203;SDS011;56317;27.658;85.326;2023-04-08T10:49:21;62.45;;;45.70;;
69203;SDS011;56317;27.658;85.326;2023-04-08T10:51:57;63.28;;;46.90;;
69203;SDS011;56317;27.658;85.326;2023-04-08T10:54:25;63.63;;;44.45;;
69203;SDS011;56317;27.658;85.326;2023-04-08T10:56:53;67.88;;;43.58;;
69203;SDS011;56317;27.658;85.326;2023-04-08T10:59:27;69.38;;;44.42;;
69203;SDS011;56317;27.658;85.326;2023-04-08T11:01:56;72.80;;;45.33;;
69203;SDS011;56317;27.658;85.326;2023-04-08T11:04:25;72.63;;;44.00;;
69203;SDS011;56317;27.658;85.326;2023-04-08T11:06:52;70.97;;;44.20;;
69203;SDS011;56317;27.658;85.326;2023-04-08T11:09:20;66.47;;;44.88;;
69203;SDS011;56317;27.658;85.326;2023-04-08T11:11:47;71.70;;;42.92;;
69203;SDS011;56317;27.658;85.326;2023-04-08T11:14:15;68.45;;;44.60;;
69203;SDS011;56317;27.658;85.326;2023-04-08T11:19:13;85.65;;;45.55;;
69203;SDS011;56317;27.658;85.326;2023-04-08T11:21:40;75.45;;;47.72;;
69203;SDS011;56317;27.658;85.326;2023-04-08T11:24:11;73.90;;;47.17;;
69203;SDS011;56317;27.658;85.326;2023-04-08T11:26:39;69.43;;;47.03;;
69203;SDS011;56317;27.658;85.326;2023-04-08T11:29:08;76.45;;;47.50;;
69203;SDS011;56317;27.658;85.326;2023-04-08T11:31:40;74.10;;;48.63;;
69203;SDS011;56317;27.658;85.326;2023-04-08T11:34:08;71.50;;;47.60;;
69203;SDS011;56317;27.658;85.326;2023-04-08T11:36:35;74.10;;;47.95;;
69203;SDS011;56317;27.658;85.326;2023-04-08T11:39:06;79.60;;;49.67;;
69203;SDS011;56317;27.658;85.326;2023-04-08T11:41:36;78.00;;;50.53;;
69203;SDS011;56317;27.658;85.326;2023-04-08T11:44:05;78.35;;;53.10;;
69203;SDS011;56317;27.658;85.326;2023-04-08T11:46:33;74.50;;;50.45;;
69203;SDS011;56317;27.658;85.326;2023-04-08T11:49:02;79.05;;;51.05;;
69203;SDS011;56317;27.658;85.326;2023-04-08T11:51:31;83.77;;;54.33;;
69203;SDS011;56317;27.658;85.326;2023-04-08T11:54:03;83.85;;;55.63;;
69203;SDS011;56317;27.658;85.326;2023-04-08T11:56:43;91.95;;;57.25;;
69203;SDS011;56317;27.658;85.326;2023-04-08T11:59:15;85.93;;;52.58;;
69203;SDS011;56317;27.658;85.326;2023-04-08T12:01:42;92.00;;;57.35;;
69203;SDS011;56317;27.658;85.326;2023-04-08T12:04:09;92.82;;;57.63;;
69203;SDS011;56317;27.658;85.326;2023-04-08T12:06:37;90.25;;;56.80;;
69203;SDS011;56317;27.658;85.326;2023-04-08T12:09:07;95.88;;;59.40;;
69203;SDS011;56317;27.658;85.326;2023-04-08T12:11:35;97.03;;;59.33;;
69203;SDS011;56317;27.658;85.326;2023-04-08T12:14:02;90.43;;;59.70;;
69203;SDS011;56317;27.658;85.326;2023-04-08T12:16:29;96.10;;;62.92;;
69203;SDS011;56317;27.658;85.326;2023-04-08T12:18:57;98.88;;;61.85;;
69203;SDS011;56317;27.658;85.326;2023-04-08T12:21:24;93.95;;;63.13;;
69203;SDS011;56317;27.658;85.326;2023-04-08T12:23:52;93.63;;;61.42;;
69203;SDS011;56317;27.658;85.326;2023-04-08T12:26:19;97.43;;;62.50;;
69203;SDS011;56317;27.658;85.326;2023-04-08T12:28:47;88.40;;;59.38;;
69203;SDS011;56317;27.658;85.326;2023-04-08T12:31:14;94.90;;;58.88;;
69203;SDS011;56317;27.658;85.326;2023-04-08T12:33:41;100.57;;;61.38;;
69203;SDS011;56317;27.658;85.326;2023-04-08T12:36:08;98.20;;;59.83;;
69203;SDS011;56317;27.658;85.326;2023-04-08T12:38:36;103.78;;;59.33;;
69203;SDS011;56317;27.658;85.326;2023-04-08T12:41:03;91.60;;;57.17;;
69203;SDS011;56317;27.658;85.326;2023-04-08T12:43:32;95.93;;;57.83;;
69203;SDS011;56317;27.658;85.326;2023-04-08T12:45:59;95.35;;;59.00;;
69203;SDS011;56317;27.658;85.326;2023-04-08T12:48:27;97.53;;;61.13;;
69203;SDS011;56317;27.658;85.326;2023-04-08T12:50:55;93.93;;;58.20;;
69203;SDS011;56317;27.658;85.326;2023-04-08T12:53:23;89.30;;;58.88;;
69203;SDS011;56317;27.658;85.326;2023-04-08T12:55:50;96.03;;;58.42;;
69203;SDS011;56317;27.658;85.326;2023-04-08T12:58:24;94.22;;;59.67;;
69203;SDS011;56317;27.658;85.326;2023-04-08T13:00:51;93.18;;;57.60;;
69203;SDS011;56317;27.658;85.326;2023-04-08T13:03:19;114.30;;;67.00;;
69203;SDS011;56317;27.658;85.326;2023-04-08T13:05:49;90.97;;;59.28;;
69203;SDS011;56317;27.658;85.326;2023-04-08T13:08:16;109.20;;;62.83;;
69203;SDS011;56317;27.658;85.326;2023-04-08T13:10:43;104.30;;;59.88;;
69203;SDS011;56317;27.658;85.326;2023-04-08T13:13:14;101.03;;;62.28;;
69203;SDS011;56317;27.658;85.326;2023-04-08T13:15:41;109.30;;;63.85;;
69203;SDS011;56317;27.658;85.326;2023-04-08T13:18:08;98.00;;;61.58;;
69203;SDS011;56317;27.658;85.326;2023-04-08T13:20:37;99.45;;;61.67;;
69203;SDS011;56317;27.658;85.326;2023-04-08T13:23:04;99.20;;;61.03;;
69203;SDS011;56317;27.658;85.326;2023-04-08T13:25:31;113.65;;;62.60;;
69203;SDS011;56317;27.658;85.326;2023-04-08T13:27:59;104.40;;;60.00;;
69203;SDS011;56317;27.658;85.326;2023-04-08T13:30:26;98.43;;;59.78;;
69203;SDS011;56317;27.658;85.326;2023-04-08T13:32:53;99.95;;;63.13;;
69203;SDS011;56317;27.658;85.326;2023-04-08T13:35:20;99.32;;;61.28;;
69203;SDS011;56317;27.658;85.326;2023-04-08T13:37:48;88.47;;;62.20;;
69203;SDS011;56317;27.658;85.326;2023-04-08T13:40:16;95.85;;;62.67;;
69203;SDS011;56317;27.658;85.326;2023-04-08T13:42:43;101.38;;;62.45;;
69203;SDS011;56317;27.658;85.326;2023-04-08T13:45:11;102.07;;;63.78;;
69203;SDS011;56317;27.658;85.326;2023-04-08T13:47:39;113.97;;;68.57;;
69203;SDS011;56317;27.658;85.326;2023-04-08T13:50:06;108.65;;;66.97;;
69203;SDS011;56317;27.658;85.326;2023-04-08T13:52:34;107.38;;;67.30;;
69203;SDS011;56317;27.658;85.326;2023-04-08T13:55:01;103.88;;;68.30;;
69203;SDS011;56317;27.658;85.326;2023-04-08T13:57:29;118.18;;;70.05;;
69203;SDS011;56317;27.658;85.326;2023-04-08T13:59:56;109.13;;;71.22;;
69203;SDS011;56317;27.658;85.326;2023-04-08T14:02:23;111.90;;;74.75;;
69203;SDS011;56317;27.658;85.326;2023-04-08T14:04:51;121.80;;;75.93;;
69203;SDS011;56317;27.658;85.326;2023-04-08T14:07:18;125.43;;;77.68;;
69203;SDS011;56317;27.658;85.326;2023-04-08T14:09:45;123.50;;;79.13;;
69203;SDS011;56317;27.658;85.326;2023-04-08T14:12:12;123.63;;;81.80;;
69203;SDS011;56317;27.658;85.326;2023-04-08T14:14:39;124.97;;;78.47;;
69203;SDS011;56317;27.658;85.326;2023-04-08T14:17:07;129.93;;;81.93;;
69203;SDS011;56317;27.658;85.326;2023-04-08T14:19:34;133.18;;;82.38;;
69203;SDS011;56317;27.658;85.326;2023-04-08T14:22:01;124.72;;;84.35;;
69203;SDS011;56317;27.658;85.326;2023-04-08T14:24:29;144.02;;;84.45;;
69203;SDS011;56317;27.658;85.326;2023-04-08T14:26:56;125.13;;;83.10;;
69203;SDS011;56317;27.658;85.326;2023-04-08T14:29:23;139.93;;;85.28;;
69203;SDS011;56317;27.658;85.326;2023-04-08T14:31:50;135.27;;;84.07;;
69203;SDS011;56317;27.658;85.326;2023-04-08T14:34:21;148.15;;;85.30;;
69203;SDS011;56317;27.658;85.326;2023-04-08T14:36:48;131.70;;;83.90;;